Tortosa, Spain

5:44 AM CEST on October 23, 2014 (GMT +0200)
Sant Llatzer | Change Station
CLOSE
Current Station
Personal Weather Station
Location: Tortosa, TGN
Elevation: 5 ft
Nearby Weather Stations

Elev 5 ft 40.80 °N, 0.52 °E | Updated 3 minutes ago

Clear
Clear
65.5 °F
Feels Like 65.5 °F
N
9.0
Wind Variable Wind from NNE
Gusts 19.0 mph

Today
High -- | Low -- °F
--% Chance of Precip.
Yesterday
High -- | Low -- °F
Precip. -- in
8:17 AM 7:06 PM
Waning Crescent, 1% visible
Pressure 30.18 in
Visibility -9999.0 miles
Clouds
Dew Point 30 °F
Humidity 26%
Rainfall 0.00 in
Snow Depth Not available.
UV Not available.
Pollen Not available.
Air Quality Not available.
Flu Activity Not available.
METAR LERS 230330Z AUTO 00000KT CAVOK 11/05 Q1022

More Conditions Fewer Conditions

Pressure 30.18 in
Visibility -9999.0 miles
Clouds
Dew Point 30 °F
Humidity 26%
Rainfall 0.00 in
Snow Depth Not available.
UV Not available.
Pollen Not available.
Air Quality Not available.
Flu Activity Not available.
METAR LERS 230330Z AUTO 00000KT CAVOK 11/05 Q1022

More Conditions Fewer Conditions

10-Day Weather Forecast

Almanac

Astronomy

Oct. 23, 2014 Rise Set
Actual Time 8:17 AM CEST 7:06 PM CEST
Civil Twilight 7:49 AM CEST 7:34 PM CEST
Nautical Twilight 7:17 AM CEST 8:06 PM CEST
Astronomical Twilight 6:46 AM CEST 8:37 PM CEST
Moon 7:42 AM CEST 6:58 PM CEST
Length Of Visible Light 11h 44m
Length of Day
10h 48m
Tomorrow will be 2m 32s shorter.
Waning Crescent, 1% of the Moon is Illuminated
Oct 22
Waning Crescent
Oct 23
New
Oct 30
First Quarter
Nov 6
Full
Nov 14
Last Quarter

Yesterday's Extremes

Country Highs Country Lows

Community

WunderPhotos

Upload Photos

1,764,130 photos uploaded!

Nearby

Snow Depth

Not available.

Earthquake Activity

City Distance Mag. Time & Date
No recent earthquake activity has been reported nearby.
Minimum magnitude displayed is 2.5.

Coastal Water Temperatures

Place Temperature
No Stations Reporting

Nearby Weather Stations